createdAt,value
2023-01-26T00:01:29.315Z,101102.72
2023-01-26T00:03:58.017Z,101110.38
2023-01-26T00:06:26.460Z,101111.50
2023-01-26T00:08:56.060Z,101115.50
2023-01-26T00:11:27.839Z,101118.22
2023-01-26T00:13:56.716Z,101110.13
2023-01-26T00:16:25.242Z,101110.25
2023-01-26T00:18:54.005Z,101109.41
2023-01-26T00:21:23.791Z,101107.56
2023-01-26T00:23:53.368Z,101108.44
2023-01-26T00:26:23.508Z,101112.97
2023-01-26T00:28:53.863Z,101113.94
2023-01-26T00:31:24.959Z,101115.78
2023-01-26T00:33:54.411Z,101120.19
2023-01-26T00:36:23.056Z,101113.06
2023-01-26T00:38:52.405Z,101114.94
2023-01-26T00:41:37.976Z,101129.41
2023-01-26T00:44:07.610Z,101123.31
2023-01-26T00:46:35.650Z,101127.25
2023-01-26T00:49:03.609Z,101126.38
2023-01-26T00:51:31.618Z,101128.13
2023-01-26T00:53:59.571Z,101131.78
2023-01-26T00:56:28.231Z,101137.06
2023-01-26T00:58:56.245Z,101131.78
2023-01-26T01:01:25.747Z,101135.34
2023-01-26T01:03:53.773Z,101133.78
2023-01-26T01:06:21.743Z,101134.78
2023-01-26T01:08:52.056Z,101133.06
2023-01-26T01:11:20.026Z,101125.13
2023-01-26T01:13:48.014Z,101135.91
2023-01-26T01:16:17.035Z,101133.22
2023-01-26T01:18:46.348Z,101125.13
2023-01-26T01:21:17.112Z,101129.66
2023-01-26T01:23:45.243Z,101120.84
2023-01-26T01:26:14.300Z,101126.25
2023-01-26T01:28:43.485Z,101098.19
2023-01-26T01:31:13.844Z,101133.31
2023-01-26T01:33:42.660Z,101113.81
2023-01-26T01:36:14.200Z,101143.84
2023-01-26T01:38:42.489Z,101132.19
2023-01-26T01:41:11.134Z,101137.59
2023-01-26T01:43:39.516Z,101137.59
2023-01-26T01:46:13.077Z,101139.16
2023-01-26T01:48:49.673Z,101142.88
2023-01-26T01:51:27.195Z,101137.03
2023-01-26T01:53:59.862Z,101160.75
2023-01-26T01:56:30.218Z,101149.09
2023-01-26T01:59:00.967Z,101158.91
2023-01-26T02:01:29.318Z,101164.31
2023-01-26T02:04:02.175Z,101156.06
2023-01-26T02:06:37.217Z,101164.16
2023-01-26T02:09:06.911Z,101154.38
2023-01-26T02:11:39.685Z,101126.31
2023-01-26T02:14:10.877Z,101150.97
2023-01-26T02:16:40.004Z,101147.53
2023-01-26T02:19:15.815Z,101154.50
2023-01-26T02:21:47.817Z,101147.41
2023-01-26T02:24:23.743Z,101155.50
2023-01-26T02:26:54.660Z,101150.09
2023-01-26T02:29:23.735Z,101154.63
2023-01-26T02:31:53.582Z,101163.59
2023-01-26T02:34:24.310Z,101165.28
2023-01-26T02:36:58.845Z,101142.53
2023-01-26T02:39:40.098Z,101162.31
2023-01-26T02:42:27.612Z,101145.84
2023-01-26T02:44:55.949Z,101153.66
2023-01-26T02:47:23.910Z,101152.81
2023-01-26T02:49:51.063Z,101150.22
2023-01-26T02:52:22.761Z,101150.97
2023-01-26T02:55:15.109Z,101154.63
2023-01-26T02:57:44.879Z,101156.63
2023-01-26T03:00:15.433Z,101154.91
2023-01-26T03:02:44.055Z,101165.59
2023-01-26T03:05:12.101Z,101164.72
2023-01-26T03:07:41.258Z,101156.75
2023-01-26T03:10:11.861Z,101155.63
2023-01-26T03:12:40.348Z,101135.28
2023-01-26T03:15:28.737Z,101163.44
2023-01-26T03:18:35.644Z,101163.72
2023-01-26T03:21:23.036Z,101162.13
2023-01-26T03:24:09.387Z,101136.41
2023-01-26T03:26:55.205Z,101159.44
2023-01-26T03:29:23.293Z,101154.91
2023-01-26T03:31:54.348Z,101159.31
2023-01-26T03:34:22.659Z,101164.97
2023-01-26T03:36:50.708Z,101168.53
2023-01-26T03:39:38.169Z,101170.53
2023-01-26T03:42:24.255Z,101161.84
2023-01-26T03:45:09.452Z,101160.81
2023-01-26T03:47:58.298Z,101164.66
2023-01-26T03:50:43.686Z,101166.63
2023-01-26T03:53:37.249Z,101164.78
2023-01-26T03:56:23.219Z,101159.25
2023-01-26T03:58:55.342Z,101163.66
2023-01-26T04:01:28.066Z,101170.78
2023-01-26T04:04:17.610Z,101188.66
2023-01-26T04:07:06.863Z,101175.31
2023-01-26T04:09:37.731Z,101191.34
2023-01-26T04:12:06.452Z,101183.41
2023-01-26T04:14:56.762Z,101196.03
2023-01-26T04:17:44.578Z,101193.59
2023-01-26T04:20:32.743Z,101198.88
2023-01-26T04:23:00.938Z,101200.81
2023-01-26T04:25:29.542Z,101197.31
2023-01-26T04:27:58.736Z,101199.13
2023-01-26T04:30:26.828Z,101195.44
2023-01-26T04:32:54.958Z,101195.44
2023-01-26T04:35:24.465Z,101195.44
2023-01-26T04:37:52.585Z,101195.72
2023-01-26T04:40:20.846Z,101191.91
2023-01-26T04:42:50.543Z,101200.97
2023-01-26T04:45:18.894Z,101201.84
2023-01-26T04:47:47.726Z,101198.28
2023-01-26T04:50:17.700Z,101205.50
2023-01-26T04:52:48.760Z,101192.03
2023-01-26T04:55:17.302Z,101207.22
2023-01-26T04:57:45.637Z,101205.41
2023-01-26T05:00:14.574Z,101209.78
2023-01-26T05:02:43.187Z,101217.00
2023-01-26T05:05:11.678Z,101213.59
2023-01-26T05:07:40.358Z,101217.31
2023-01-26T05:10:13.888Z,101225.97
2023-01-26T05:12:56.650Z,101231.34
2023-01-26T05:15:41.663Z,101231.34
2023-01-26T05:18:16.910Z,101243.97
2023-01-26T05:21:04.501Z,101248.66
2023-01-26T05:23:40.553Z,101245.97
2023-01-26T05:26:29.754Z,101244.28
2023-01-26T05:29:01.768Z,101257.75
2023-01-26T05:31:29.913Z,101259.59
2023-01-26T05:33:57.904Z,101261.44
2023-01-26T05:36:25.977Z,101266.56
2023-01-26T05:38:54.659Z,101262.03
2023-01-26T05:41:26.228Z,101260.72
2023-01-26T05:44:23.254Z,101271.25
2023-01-26T05:46:55.993Z,101272.22
2023-01-26T05:49:23.929Z,101279.44
2023-01-26T05:51:53.110Z,101277.63
2023-01-26T05:54:21.235Z,101288.41
2023-01-26T05:56:49.235Z,101288.53
2023-01-26T05:59:17.455Z,101291.25
2023-01-26T06:01:46.880Z,101293.78
2023-01-26T06:04:14.949Z,101295.63
2023-01-26T06:06:48.609Z,101297.47
2023-01-26T06:09:43.507Z,101297.00
2023-01-26T06:12:17.956Z,101322.03
2023-01-26T06:14:57.854Z,101321.00
2023-01-26T06:17:35.958Z,101320.03
2023-01-26T06:20:11.447Z,101327.41
2023-01-26T06:22:39.737Z,101333.63
2023-01-26T06:25:08.271Z,101335.50
2023-01-26T06:27:36.815Z,101338.22
2023-01-26T06:30:12.880Z,101348.13
2023-01-26T06:32:42.963Z,101340.91
2023-01-26T06:35:11.197Z,101340.16
2023-01-26T06:37:40.957Z,101352.66
2023-01-26T06:40:11.188Z,101355.22
2023-01-26T06:42:39.318Z,101361.47
2023-01-26T06:45:08.587Z,101373.13
2023-01-26T06:47:37.005Z,101372.25
2023-01-26T06:50:08.864Z,101367.59
2023-01-26T06:52:37.650Z,101379.38
2023-01-26T06:55:36.176Z,101389.31
2023-01-26T06:58:22.813Z,101383.28
2023-01-26T07:01:03.249Z,101386.00
2023-01-26T07:03:35.017Z,101384.16
2023-01-26T07:06:05.956Z,101399.47
2023-01-26T07:08:33.992Z,101404.00
2023-01-26T07:11:01.963Z,101399.63
2023-01-26T07:13:30.137Z,101396.06
2023-01-26T07:16:02.777Z,101413.97
2023-01-26T07:18:31.446Z,101417.63
2023-01-26T07:21:02.444Z,101432.94
2023-01-26T07:23:33.924Z,101431.25
2023-01-26T07:26:03.055Z,101445.72
2023-01-26T07:28:31.580Z,101438.59
2023-01-26T07:31:00.042Z,101450.25
2023-01-26T07:33:29.342Z,101459.44
2023-01-26T07:35:58.096Z,101462.84
2023-01-26T07:38:26.619Z,101455.88
2023-01-26T07:40:57.925Z,101464.44
2023-01-26T07:43:26.063Z,101469.97
2023-01-26T07:45:55.761Z,101475.25
2023-01-26T07:48:25.303Z,101461.41
2023-01-26T07:50:53.383Z,101479.66
2023-01-26T07:53:22.906Z,101490.31
2023-01-26T07:55:51.016Z,101489.47
2023-01-26T07:58:20.347Z,101500.28
2023-01-26T08:00:48.449Z,101499.41
2023-01-26T08:03:16.514Z,101501.22
2023-01-26T08:05:44.495Z,101515.44
2023-01-26T08:08:12.718Z,101504.78
2023-01-26T08:10:40.734Z,101516.44
2023-01-26T08:13:08.810Z,101516.44
2023-01-26T08:15:38.095Z,101521.69
2023-01-26T08:18:06.175Z,101516.19
2023-01-26T08:20:35.213Z,101525.88
2023-01-26T08:23:03.229Z,101536.53
2023-01-26T08:25:32.923Z,101542.66
2023-01-26T08:28:00.927Z,101537.25
2023-01-26T08:30:28.797Z,101545.13
2023-01-26T08:32:58.939Z,101549.53
2023-01-26T08:35:26.966Z,101552.34
2023-01-26T08:37:54.916Z,101565.72
2023-01-26T08:40:24.744Z,101571.13
2023-01-26T08:42:52.952Z,101569.16
2023-01-26T08:45:21.121Z,101571.13
2023-01-26T08:47:51.467Z,101570.13
2023-01-26T08:50:20.959Z,101575.75
2023-01-26T08:52:48.903Z,101576.25
2023-01-26T08:55:17.034Z,101581.53
2023-01-26T08:57:45.216Z,101586.94
2023-01-26T09:00:14.917Z,101590.50
2023-01-26T09:02:43.283Z,101594.88
2023-01-26T09:05:11.604Z,101598.44
2023-01-26T09:07:40.953Z,101610.09
2023-01-26T09:10:10.914Z,101604.56
2023-01-26T09:12:41.061Z,101604.72
2023-01-26T09:15:10.200Z,101605.56
2023-01-26T09:17:38.338Z,101611.81
2023-01-26T09:20:08.295Z,101614.25
2023-01-26T09:22:36.339Z,101616.13
2023-01-26T09:25:06.536Z,101613.41
2023-01-26T09:27:34.582Z,101623.34
2023-01-26T09:30:02.841Z,101623.34
2023-01-26T09:32:31.056Z,101634.16
2023-01-26T09:34:59.056Z,101632.16
2023-01-26T09:37:27.197Z,101637.56
2023-01-26T09:39:55.183Z,101633.03
2023-01-26T09:42:39.053Z,101647.97
2023-01-26T09:45:22.953Z,101632.78
2023-01-26T09:48:16.859Z,101640.03
2023-01-26T09:50:49.731Z,101636.31
2023-01-26T09:53:23.032Z,101638.06
2023-01-26T09:55:52.421Z,101658.91
2023-01-26T09:58:31.364Z,101656.22
2023-01-26T10:01:02.412Z,101646.13
2023-01-26T10:03:37.117Z,101666.13
2023-01-26T10:06:15.338Z,101673.25
2023-01-26T10:09:07.293Z,101685.16
2023-01-26T10:11:40.298Z,101686.63
2023-01-26T10:14:16.701Z,101689.31
2023-01-26T10:16:48.288Z,101692.16
2023-01-26T10:19:26.836Z,101700.34
2023-01-26T10:21:58.727Z,101696.91
2023-01-26T10:24:26.693Z,101705.25
2023-01-26T10:26:58.247Z,101714.34
2023-01-26T10:29:27.696Z,101711.75
2023-01-26T10:31:56.229Z,101721.81
2023-01-26T10:34:27.257Z,101724.50
2023-01-26T10:37:03.055Z,101720.09
2023-01-26T10:39:31.014Z,101731.38
2023-01-26T10:42:00.319Z,101727.81
2023-01-26T10:44:34.995Z,101737.59
2023-01-26T10:47:06.120Z,101730.50
2023-01-26T10:49:34.344Z,101736.88
2023-01-26T10:52:17.541Z,101731.47
2023-01-26T10:54:45.829Z,101744.47
2023-01-26T10:57:24.728Z,101742.75
2023-01-26T10:59:58.015Z,101750.09
2023-01-26T11:02:28.844Z,101759.28
2023-01-26T11:05:19.480Z,101761.88
2023-01-26T11:07:50.023Z,101749.22
2023-01-26T11:10:25.335Z,101766.50
2023-01-26T11:13:07.988Z,101765.78
2023-01-26T11:15:39.864Z,101765.03
2023-01-26T11:18:19.956Z,101771.16
2023-01-26T11:20:58.674Z,101776.56
2023-01-26T11:23:38.973Z,101780.25
2023-01-26T11:26:25.880Z,101770.44
2023-01-26T11:29:09.277Z,101781.94
2023-01-26T11:31:50.848Z,101778.38
2023-01-26T11:34:29.221Z,101782.09
2023-01-26T11:37:27.689Z,101794.47
2023-01-26T11:40:04.852Z,101794.69
2023-01-26T11:42:39.865Z,101697.63
2023-01-26T11:45:23.109Z,101796.53
2023-01-26T11:48:12.370Z,101788.56
2023-01-26T11:50:46.681Z,101797.63
2023-01-26T11:53:32.789Z,101786.09
2023-01-26T11:56:14.393Z,101790.63
2023-01-26T11:58:46.360Z,101790.75
2023-01-26T12:01:20.327Z,101792.59
2023-01-26T12:03:51.643Z,101804.34
2023-01-26T12:06:21.645Z,101806.06
2023-01-26T12:08:54.769Z,101799.19
2023-01-26T12:11:27.401Z,101811.34
2023-01-26T12:14:09.009Z,101811.34
2023-01-26T12:16:46.174Z,101809.72
2023-01-26T12:19:27.906Z,101809.63
2023-01-26T12:22:01.833Z,101799.81
2023-01-26T12:25:04.973Z,101806.94
2023-01-26T12:27:30.715Z,101816.00
2023-01-26T12:30:09.664Z,101829.47
2023-01-26T12:32:37.686Z,101829.59
2023-01-26T12:35:12.516Z,101826.91
2023-01-26T12:37:53.851Z,101828.75
2023-01-26T12:40:32.459Z,101832.19
2023-01-26T12:43:17.507Z,101843.81
2023-01-26T12:45:49.232Z,101832.31
2023-01-26T12:48:23.241Z,101819.81
2023-01-26T12:50:57.077Z,101845.44
2023-01-26T12:53:32.080Z,101857.69
2023-01-26T12:56:11.454Z,101866.44
2023-01-26T12:58:43.076Z,101868.38
2023-01-26T13:01:13.918Z,101872.78
2023-01-26T13:03:45.045Z,101883.69
2023-01-26T13:06:25.637Z,101871.44
2023-01-26T13:09:04.372Z,101869.94
2023-01-26T13:11:47.379Z,101877.78
2023-01-26T13:14:40.005Z,101885.16
2023-01-26T13:17:55.771Z,101889.53
2023-01-26T13:20:43.374Z,101898.84
2023-01-26T13:23:43.883Z,101904.25
2023-01-26T13:26:41.314Z,101914.38
2023-01-26T13:29:35.459Z,101912.91
2023-01-26T13:32:55.197Z,101916.66
2023-01-26T13:35:25.631Z,101920.22
2023-01-26T13:38:01.830Z,101932.41
2023-01-26T13:40:34.480Z,101900.91
2023-01-26T13:43:25.307Z,101923.00
2023-01-26T13:46:05.065Z,101934.00
2023-01-26T13:48:45.164Z,101939.38
2023-01-26T13:51:18.406Z,101946.41
2023-01-26T13:53:51.153Z,101942.50
2023-01-26T13:56:26.579Z,101947.56
2023-01-26T13:58:55.026Z,101946.69
2023-01-26T14:01:22.954Z,101953.09
2023-01-26T14:04:03.902Z,101956.53
2023-01-26T14:06:32.554Z,101953.81
2023-01-26T14:09:00.579Z,101961.78
2023-01-26T14:11:33.452Z,101959.72
2023-01-26T14:14:03.092Z,101970.53
2023-01-26T14:16:33.375Z,101971.38
2023-01-26T14:19:07.330Z,101972.13
2023-01-26T14:21:47.484Z,101980.34
2023-01-26T14:24:15.546Z,101986.84
2023-01-26T14:26:45.193Z,101983.16
2023-01-26T14:29:20.705Z,101991.97
2023-01-26T14:31:49.771Z,102001.81
2023-01-26T14:34:22.426Z,102001.72
2023-01-26T14:37:05.333Z,102006.97
2023-01-26T14:39:33.412Z,102014.19
2023-01-26T14:42:03.724Z,102021.34
2023-01-26T14:44:31.813Z,102002.38
2023-01-26T14:47:05.720Z,102032.88
2023-01-26T14:49:44.475Z,102027.81
2023-01-26T14:52:20.886Z,102020.81
2023-01-26T14:54:50.291Z,102022.97
2023-01-26T14:57:21.901Z,102021.03
2023-01-26T14:59:52.654Z,102034.38
2023-01-26T15:02:22.836Z,102034.69
2023-01-26T15:04:55.415Z,102039.53
2023-01-26T15:07:34.518Z,102046.97
2023-01-26T15:10:03.511Z,102039.47
2023-01-26T15:12:36.865Z,102043.25
2023-01-26T15:15:14.126Z,102041.06
2023-01-26T15:17:43.564Z,102033.06
2023-01-26T15:20:40.020Z,102035.75
2023-01-26T15:23:23.516Z,102057.06
2023-01-26T15:25:51.682Z,102049.53
2023-01-26T15:28:25.849Z,102054.72
2023-01-26T15:30:57.187Z,102053.63
2023-01-26T15:33:45.570Z,102058.88
2023-01-26T15:36:29.019Z,102049.72
2023-01-26T15:39:00.990Z,102057.69
2023-01-26T15:41:29.806Z,102069.16
2023-01-26T15:43:59.596Z,102070.53
2023-01-26T15:46:27.995Z,102065.78
2023-01-26T15:48:56.078Z,102070.97
2023-01-26T15:51:24.113Z,102074.91
2023-01-26T15:53:52.010Z,102073.59
2023-01-26T15:56:20.042Z,102079.41
2023-01-26T15:58:48.023Z,102086.28
2023-01-26T16:01:21.814Z,102076.44
2023-01-26T16:03:50.410Z,102077.00
2023-01-26T16:06:25.108Z,102080.22
2023-01-26T16:08:53.729Z,102089.06
2023-01-26T16:11:22.316Z,102083.44
2023-01-26T16:14:02.429Z,102094.97
2023-01-26T16:16:32.770Z,102107.25
2023-01-26T16:19:01.042Z,102104.22
2023-01-26T16:21:33.227Z,102107.53
2023-01-26T16:24:01.963Z,102111.84
2023-01-26T16:26:30.609Z,102109.03
2023-01-26T16:28:58.949Z,102100.94
2023-01-26T16:31:29.777Z,102102.63
2023-01-26T16:33:59.927Z,102081.22
2023-01-26T16:36:28.168Z,102099.31
2023-01-26T16:38:56.238Z,102102.75
2023-01-26T16:41:27.146Z,102109.88
2023-01-26T16:43:56.522Z,102110.75
2023-01-26T16:46:24.917Z,102109.88
2023-01-26T16:48:53.199Z,102121.44
2023-01-26T16:51:26.393Z,102118.56
2023-01-26T16:53:55.539Z,102129.22
2023-01-26T16:56:25.507Z,102130.84
2023-01-26T16:58:53.513Z,102132.56
2023-01-26T17:01:23.234Z,102144.13
2023-01-26T17:03:52.006Z,102146.91
2023-01-26T17:06:21.941Z,102147.69
2023-01-26T17:08:50.581Z,102135.88
2023-01-26T17:11:20.635Z,102142.03
2023-01-26T17:13:49.259Z,102136.75
2023-01-26T17:16:19.625Z,102138.34
2023-01-26T17:18:48.640Z,102144.72
2023-01-26T17:21:19.076Z,102140.09
2023-01-26T17:23:51.164Z,102151.63
2023-01-26T17:26:19.806Z,102140.97
2023-01-26T17:28:50.106Z,102160.25
2023-01-26T17:31:20.634Z,102149.44
2023-01-26T17:33:50.842Z,102154.72
2023-01-26T17:36:20.056Z,102147.38
2023-01-26T17:38:48.356Z,102149.31
2023-01-26T17:41:18.036Z,102169.50
2023-01-26T17:43:46.168Z,102175.78
2023-01-26T17:46:16.208Z,102167.41
2023-01-26T17:48:45.530Z,102179.09
2023-01-26T17:51:16.545Z,102173.69
2023-01-26T17:53:46.323Z,102181.69
2023-01-26T17:56:16.866Z,102183.31
2023-01-26T17:58:49.714Z,102182.31
2023-01-26T18:01:17.875Z,102172.47
2023-01-26T18:03:45.850Z,102189.31
2023-01-26T18:06:14.322Z,102194.63
2023-01-26T18:08:42.766Z,102187.34
2023-01-26T18:11:13.116Z,102197.19
2023-01-26T18:13:41.682Z,102179.56
2023-01-26T18:16:15.196Z,102194.84
2023-01-26T18:18:43.377Z,102190.59
2023-01-26T18:21:12.929Z,102189.47
2023-01-26T18:23:41.095Z,102202.13
2023-01-26T18:26:09.090Z,102205.72
2023-01-26T18:28:37.120Z,102206.53
2023-01-26T18:31:14.374Z,102213.56
2023-01-26T18:33:42.837Z,102225.47
2023-01-26T18:36:13.228Z,102226.34
2023-01-26T18:38:42.499Z,102234.47
2023-01-26T18:41:12.277Z,102231.75
2023-01-26T18:43:40.504Z,102225.38
2023-01-26T18:46:08.647Z,102228.94
2023-01-26T18:48:38.142Z,102234.47
2023-01-26T18:51:07.329Z,102243.56
2023-01-26T18:53:37.177Z,102218.44
2023-01-26T18:56:06.490Z,102229.19
2023-01-26T18:58:35.075Z,102231.97
2023-01-26T19:01:05.716Z,102231.25
2023-01-26T19:03:34.210Z,102242.06
2023-01-26T19:06:04.269Z,102244.66
2023-01-26T19:08:34.352Z,102253.63
2023-01-26T19:11:05.594Z,102253.53
2023-01-26T19:13:33.594Z,102240.00
2023-01-26T19:16:01.562Z,102248.84
2023-01-26T19:18:29.519Z,102254.03
2023-01-26T19:20:58.093Z,102271.13
2023-01-26T19:23:27.629Z,102278.25
2023-01-26T19:25:55.734Z,102277.38
2023-01-26T19:28:23.854Z,102260.19
2023-01-26T19:30:51.840Z,102255.88
2023-01-26T19:33:25.857Z,102271.13
2023-01-26T19:35:53.920Z,102273.69
2023-01-26T19:38:22.174Z,102274.66
2023-01-26T19:40:52.939Z,102278.25
2023-01-26T19:43:21.724Z,102285.75
2023-01-26T19:45:53.027Z,102287.59
2023-01-26T19:48:22.070Z,102285.75
2023-01-26T19:51:03.057Z,102280.06
2023-01-26T19:53:31.841Z,102279.34
2023-01-26T19:56:05.578Z,102279.09
2023-01-26T19:58:33.701Z,102276.53
2023-01-26T20:01:02.755Z,102271.97
2023-01-26T20:03:31.056Z,102260.06
2023-01-26T20:05:59.301Z,102256.38
2023-01-26T20:08:28.221Z,102268.78
2023-01-26T20:11:02.874Z,102268.78
2023-01-26T20:13:32.397Z,102262.53
2023-01-26T20:16:00.647Z,102266.09
2023-01-26T20:18:28.673Z,102270.56
2023-01-26T20:21:00.416Z,102278.56
2023-01-26T20:23:29.656Z,102277.69
2023-01-26T20:26:02.565Z,102269.34
2023-01-26T20:28:32.091Z,102265.03
2023-01-26T20:31:07.769Z,102272.91
2023-01-26T20:33:36.758Z,102278.31
2023-01-26T20:36:07.574Z,102284.47
2023-01-26T20:38:36.035Z,102286.31
2023-01-26T20:41:08.288Z,102283.72
2023-01-26T20:43:41.595Z,102278.44
2023-01-26T20:46:17.748Z,102280.38
2023-01-26T20:48:46.436Z,102267.94
2023-01-26T20:51:16.959Z,102276.72
2023-01-26T20:53:46.850Z,102290.25
2023-01-26T20:56:15.185Z,102291.97
2023-01-26T20:58:44.806Z,102283.72
2023-01-26T21:01:14.804Z,102272.91
2023-01-26T21:03:43.302Z,102276.50
2023-01-26T21:06:13.451Z,102286.56
2023-01-26T21:08:42.309Z,102283.00
2023-01-26T21:11:13.919Z,102296.38
2023-01-26T21:13:42.712Z,102283.00
2023-01-26T21:16:14.638Z,102285.56
2023-01-26T21:18:42.820Z,102299.31
2023-01-26T21:21:13.600Z,102290.25
2023-01-26T21:23:42.170Z,102297.63
2023-01-26T21:26:13.712Z,102290.25
2023-01-26T21:28:41.713Z,102286.81
2023-01-26T21:31:13.734Z,102285.81
2023-01-26T21:33:43.839Z,102291.22
2023-01-26T21:36:14.247Z,102302.91
2023-01-26T21:38:43.976Z,102315.56
2023-01-26T21:41:27.241Z,102324.53
2023-01-26T21:43:56.842Z,102315.66
2023-01-26T21:46:26.167Z,102309.59
2023-01-26T21:48:54.164Z,102323.66
2023-01-26T21:51:40.396Z,102334.41
2023-01-26T21:54:08.536Z,102338.19
2023-01-26T21:56:37.081Z,102336.34
2023-01-26T21:59:07.694Z,102334.50
2023-01-26T22:01:39.231Z,102339.06
2023-01-26T22:04:09.919Z,102310.09
2023-01-26T22:06:39.168Z,102334.50
2023-01-26T22:09:09.082Z,102337.41
2023-01-26T22:11:37.103Z,102341.84
2023-01-26T22:14:05.145Z,102344.34
2023-01-26T22:16:33.558Z,102352.47
2023-01-26T22:19:03.705Z,102347.78
2023-01-26T22:21:32.475Z,102341.41
2023-01-26T22:24:00.517Z,102346.81
2023-01-26T22:26:28.620Z,102350.50
2023-01-26T22:28:58.153Z,102352.00
2023-01-26T22:31:28.063Z,102350.03
2023-01-26T22:33:57.310Z,102353.72
2023-01-26T22:36:27.601Z,102358.03
2023-01-26T22:38:55.838Z,102359.34
2023-01-26T22:41:25.745Z,102369.50
2023-01-26T22:43:55.697Z,102355.00
2023-01-26T22:46:25.323Z,102352.16
2023-01-26T22:48:53.660Z,102346.63
2023-01-26T22:51:23.684Z,102344.78
2023-01-26T22:53:54.571Z,102357.56
2023-01-26T22:56:23.161Z,102363.72
2023-01-26T22:58:57.965Z,102364.47
2023-01-26T23:01:28.464Z,102367.28
2023-01-26T23:03:57.279Z,102362.97
2023-01-26T23:06:25.664Z,102366.31
2023-01-26T23:08:55.348Z,102361.53
2023-01-26T23:11:26.068Z,102365.97
2023-01-26T23:13:55.671Z,102373.13
2023-01-26T23:16:24.680Z,102373.00
2023-01-26T23:18:53.673Z,102370.16
2023-01-26T23:21:22.228Z,102376.44
2023-01-26T23:23:50.565Z,102377.44
2023-01-26T23:26:20.533Z,102378.16
2023-01-26T23:28:48.920Z,102379.13
2023-01-26T23:31:18.594Z,102361.88
2023-01-26T23:33:47.035Z,102384.44
2023-01-26T23:36:16.172Z,102388.25
2023-01-26T23:38:45.652Z,102387.84
2023-01-26T23:41:14.434Z,102399.19
2023-01-26T23:43:44.094Z,102408.91
2023-01-26T23:46:13.262Z,102407.06
2023-01-26T23:48:41.638Z,102400.78
2023-01-26T23:51:11.809Z,102404.50
2023-01-26T23:53:40.045Z,102401.66
2023-01-26T23:56:09.669Z,102422.34
2023-01-26T23:58:38.392Z,102425.50
